THY1AB LTAC-LTCJ
Flight info
| Callsign | THY1AB |
|---|---|
| Flight time | 1h 11m |
| Altitude | 31000 |
| Route | GOBIT UG8 MARTI UL614 EZS UW104 ZUITA |
| Aircraft | A321/M-SDE3FGHIRWY/LB1 |
Departure
| Time | 2026-04-25 17:31 |
|---|---|
| Airport | Esenboğa International Airport (LTAC) |
Arrival
| Time | 2026-04-25 18:43 |
|---|---|
| Airport | Batman Airport (LTCJ) |
| Time | Latitude | Longitude | Altitude | Speed | Heading |
|---|---|---|---|---|---|
| 2026-04-25 16:46 | 40.11494 | 32.98952 | 3113 ft | 0 kts | 131° |
| 2026-04-25 17:20 | 40.11505 | 32.98935 | 3113 ft | 4 kts | 129° |
| 2026-04-25 17:20 | 40.11513 | 32.98922 | 3113 ft | 0 kts | 130° |
| 2026-04-25 17:23 | 40.11515 | 32.98918 | 3113 ft | 2 kts | 130° |
| 2026-04-25 17:23 | 40.11527 | 32.98895 | 3113 ft | 4 kts | 90° |
| 2026-04-25 17:24 | 40.11520 | 32.98874 | 3113 ft | 0 kts | 36° |
| 2026-04-25 17:24 | 40.11520 | 32.98875 | 3113 ft | 1 kts | 36° |
| 2026-04-25 17:25 | 40.11545 | 32.98899 | 3113 ft | 8 kts | 39° |
| 2026-04-25 17:25 | 40.11582 | 32.98938 | 3113 ft | 7 kts | 30° |
| 2026-04-25 17:25 | 40.11630 | 32.98929 | 3113 ft | 8 kts | 330° |
| 2026-04-25 17:25 | 40.11665 | 32.98878 | 3113 ft | 8 kts | 308° |
| 2026-04-25 17:26 | 40.11677 | 32.98856 | 3113 ft | 0 kts | 305° |
| 2026-04-25 17:28 | 40.11685 | 32.98840 | 3113 ft | 7 kts | 305° |
| 2026-04-25 17:28 | 40.11726 | 32.98766 | 3113 ft | 12 kts | 306° |
| 2026-04-25 17:28 | 40.11777 | 32.98674 | 3113 ft | 13 kts | 306° |
| 2026-04-25 17:28 | 40.11834 | 32.98572 | 3113 ft | 15 kts | 306° |
| 2026-04-25 17:29 | 40.11882 | 32.98489 | 3113 ft | 7 kts | 312° |
| 2026-04-25 17:29 | 40.11920 | 32.98500 | 3113 ft | 5 kts | 34° |
| 2026-04-25 17:29 | 40.11921 | 32.98500 | 3113 ft | 0 kts | 35° |
| 2026-04-25 17:30 | 40.11939 | 32.98517 | 3113 ft | 18 kts | 36° |
| 2026-04-25 17:30 | 40.12251 | 32.98818 | 3117 ft | 91 kts | 36° |
| 2026-04-25 17:31 | 40.12935 | 32.99471 | 3122 ft | 149 kts | 36° |
| 2026-04-25 17:31 | 40.13855 | 33.00356 | 3533 ft | 163 kts | 39° |
| 2026-04-25 17:31 | 40.14748 | 33.01284 | 4205 ft | 166 kts | 40° |
| 2026-04-25 17:31 | 40.15648 | 33.02254 | 4744 ft | 169 kts | 41° |
| 2026-04-25 17:32 | 40.16586 | 33.03260 | 5111 ft | 184 kts | 40° |
| 2026-04-25 17:32 | 40.17638 | 33.04378 | 5313 ft | 205 kts | 40° |
| 2026-04-25 17:32 | 40.18815 | 33.05619 | 5468 ft | 229 kts | 39° |
| 2026-04-25 17:32 | 40.20126 | 33.06992 | 5745 ft | 250 kts | 40° |
| 2026-04-25 17:33 | 40.21232 | 33.08741 | 6426 ft | 254 kts | 70° |
| 2026-04-25 17:33 | 40.21423 | 33.11031 | 6876 ft | 269 kts | 103° |
| 2026-04-25 17:33 | 40.20594 | 33.13235 | 7417 ft | 277 kts | 128° |
| 2026-04-25 17:33 | 40.19292 | 33.15135 | 8146 ft | 282 kts | 135° |
| 2026-04-25 17:34 | 40.17873 | 33.16941 | 8883 ft | 285 kts | 136° |
| 2026-04-25 17:34 | 40.16461 | 33.18787 | 9612 ft | 289 kts | 134° |
| 2026-04-25 17:34 | 40.15083 | 33.20721 | 10247 ft | 297 kts | 133° |
| 2026-04-25 17:34 | 40.13680 | 33.22826 | 10439 ft | 318 kts | 132° |
| 2026-04-25 17:35 | 40.12218 | 33.25137 | 10623 ft | 337 kts | 129° |
| 2026-04-25 17:35 | 40.10726 | 33.27583 | 11178 ft | 347 kts | 129° |
| 2026-04-25 17:35 | 40.09227 | 33.30066 | 11803 ft | 351 kts | 130° |
| 2026-04-25 17:35 | 40.07714 | 33.32597 | 12448 ft | 355 kts | 130° |
| 2026-04-25 17:36 | 40.06190 | 33.35148 | 13082 ft | 359 kts | 130° |
| 2026-04-25 17:36 | 40.04644 | 33.37717 | 13712 ft | 362 kts | 130° |
| 2026-04-25 17:36 | 40.03076 | 33.40304 | 14342 ft | 366 kts | 130° |
| 2026-04-25 17:36 | 40.01489 | 33.42923 | 14968 ft | 369 kts | 129° |
| 2026-04-25 17:37 | 39.99959 | 33.45637 | 15582 ft | 374 kts | 127° |
| 2026-04-25 17:37 | 39.98484 | 33.48449 | 16204 ft | 377 kts | 126° |
| 2026-04-25 17:37 | 39.97032 | 33.51318 | 16819 ft | 380 kts | 125° |
| 2026-04-25 17:37 | 39.95578 | 33.54216 | 17419 ft | 384 kts | 125° |
| 2026-04-25 17:38 | 39.94101 | 33.57132 | 17965 ft | 387 kts | 125° |
| 2026-04-25 17:38 | 39.93110 | 33.59068 | 18335 ft | 389 kts | 126° |
| 2026-04-25 17:38 | 39.91083 | 33.62982 | 19055 ft | 394 kts | 126° |
| 2026-04-25 17:38 | 39.89535 | 33.65949 | 19586 ft | 398 kts | 126° |
| 2026-04-25 17:39 | 39.87967 | 33.68945 | 20108 ft | 401 kts | 126° |
| 2026-04-25 17:39 | 39.86389 | 33.71954 | 20631 ft | 405 kts | 126° |
| 2026-04-25 17:39 | 39.84794 | 33.74997 | 21137 ft | 409 kts | 126° |
| 2026-04-25 17:39 | 39.83413 | 33.78248 | 21632 ft | 415 kts | 112° |
| 2026-04-25 17:40 | 39.82646 | 33.81896 | 22088 ft | 420 kts | 105° |
| 2026-04-25 17:40 | 39.81971 | 33.85620 | 22551 ft | 424 kts | 105° |
| 2026-04-25 17:40 | 39.81294 | 33.89372 | 22992 ft | 427 kts | 105° |
| 2026-04-25 17:40 | 39.80611 | 33.93148 | 23419 ft | 431 kts | 105° |
| 2026-04-25 17:41 | 39.79920 | 33.96959 | 23837 ft | 434 kts | 105° |
| 2026-04-25 17:41 | 39.79223 | 34.00796 | 24256 ft | 437 kts | 105° |
| 2026-04-25 17:41 | 39.78521 | 34.04643 | 24663 ft | 440 kts | 105° |
| 2026-04-25 17:41 | 39.77816 | 34.08492 | 25054 ft | 443 kts | 105° |
| 2026-04-25 17:42 | 39.77098 | 34.12397 | 25436 ft | 446 kts | 105° |
| 2026-04-25 17:42 | 39.76373 | 34.16330 | 25827 ft | 448 kts | 105° |
| 2026-04-25 17:42 | 39.75642 | 34.20280 | 26203 ft | 451 kts | 105° |
| 2026-04-25 17:42 | 39.74907 | 34.24249 | 26572 ft | 453 kts | 105° |
| 2026-04-25 17:43 | 39.74172 | 34.28230 | 26940 ft | 455 kts | 105° |
| 2026-04-25 17:43 | 39.73430 | 34.32247 | 27301 ft | 458 kts | 105° |
| 2026-04-25 17:43 | 39.72684 | 34.36279 | 27655 ft | 460 kts | 106° |
| 2026-04-25 17:43 | 39.71930 | 34.40341 | 28009 ft | 463 kts | 106° |
| 2026-04-25 17:44 | 39.71172 | 34.44414 | 28345 ft | 465 kts | 106° |
| 2026-04-25 17:44 | 39.70406 | 34.48506 | 28671 ft | 467 kts | 106° |
| 2026-04-25 17:44 | 39.69640 | 34.52605 | 28987 ft | 469 kts | 106° |
| 2026-04-25 17:44 | 39.68867 | 34.56729 | 29298 ft | 471 kts | 106° |
| 2026-04-25 17:45 | 39.68090 | 34.60867 | 29610 ft | 473 kts | 106° |
| 2026-04-25 17:45 | 39.67835 | 34.62220 | 29712 ft | 474 kts | 106° |
| 2026-04-25 17:45 | 39.66515 | 34.69200 | 30243 ft | 477 kts | 107° |
| 2026-04-25 17:45 | 39.65718 | 34.73396 | 30560 ft | 479 kts | 107° |
| 2026-04-25 17:46 | 39.64921 | 34.77597 | 30892 ft | 480 kts | 106° |
| 2026-04-25 17:46 | 39.64124 | 34.81803 | 31030 ft | 478 kts | 106° |
| 2026-04-25 17:46 | 39.63346 | 34.85922 | 31058 ft | 464 kts | 107° |
| 2026-04-25 17:46 | 39.62582 | 34.89952 | 31051 ft | 459 kts | 107° |
| 2026-04-25 17:47 | 39.61044 | 34.97974 | 31050 ft | 456 kts | 107° |
| 2026-04-25 17:47 | 39.59515 | 35.05912 | 31050 ft | 457 kts | 107° |
| 2026-04-25 17:48 | 39.56814 | 35.17719 | 31050 ft | 455 kts | 111° |
| 2026-04-25 17:49 | 39.54796 | 35.25466 | 31048 ft | 454 kts | 112° |
| 2026-04-25 17:49 | 39.52813 | 35.33243 | 31050 ft | 455 kts | 111° |
| 2026-04-25 17:50 | 39.51213 | 35.39741 | 31069 ft | 461 kts | 110° |
| 2026-04-25 17:50 | 39.48949 | 35.49022 | 31049 ft | 457 kts | 111° |
| 2026-04-25 17:51 | 39.46987 | 35.56834 | 31066 ft | 455 kts | 111° |
| 2026-04-25 17:51 | 39.45053 | 35.64485 | 31044 ft | 443 kts | 111° |
| 2026-04-25 17:52 | 39.43149 | 35.72030 | 31046 ft | 441 kts | 111° |
| 2026-04-25 17:52 | 39.41255 | 35.79533 | 31044 ft | 441 kts | 111° |
| 2026-04-25 17:53 | 39.39342 | 35.87066 | 31074 ft | 441 kts | 111° |
| 2026-04-25 17:53 | 39.37431 | 35.94607 | 31074 ft | 441 kts | 111° |
| 2026-04-25 17:54 | 39.35505 | 36.02155 | 31078 ft | 441 kts | 112° |
| 2026-04-25 17:54 | 39.33570 | 36.09680 | 31072 ft | 442 kts | 112° |
| 2026-04-25 17:55 | 39.31636 | 36.17210 | 31083 ft | 442 kts | 112° |
| 2026-04-25 17:55 | 39.29704 | 36.24750 | 31103 ft | 441 kts | 112° |
| 2026-04-25 17:56 | 39.27769 | 36.32257 | 31113 ft | 439 kts | 112° |
| 2026-04-25 17:56 | 39.25843 | 36.39682 | 31114 ft | 438 kts | 112° |
| 2026-04-25 17:57 | 39.23892 | 36.47166 | 31100 ft | 444 kts | 112° |
| 2026-04-25 17:57 | 39.21920 | 36.54753 | 31101 ft | 447 kts | 112° |
| 2026-04-25 17:58 | 39.19936 | 36.62367 | 31109 ft | 449 kts | 112° |
| 2026-04-25 17:58 | 39.17918 | 36.70033 | 31108 ft | 453 kts | 112° |
| 2026-04-25 17:59 | 39.16233 | 36.76444 | 31111 ft | 454 kts | 112° |
| 2026-04-25 17:59 | 39.14209 | 36.84145 | 31111 ft | 455 kts | 112° |
| 2026-04-25 18:00 | 39.12165 | 36.91867 | 31115 ft | 455 kts | 112° |
| 2026-04-25 18:00 | 39.10113 | 36.99582 | 31122 ft | 455 kts | 112° |
| 2026-04-25 18:01 | 39.08060 | 37.07299 | 31130 ft | 455 kts | 112° |
| 2026-04-25 18:01 | 39.06016 | 37.14967 | 31130 ft | 456 kts | 112° |
| 2026-04-25 18:02 | 39.03932 | 37.22728 | 31131 ft | 456 kts | 112° |
| 2026-04-25 18:02 | 39.01867 | 37.30438 | 31127 ft | 456 kts | 113° |
| 2026-04-25 18:03 | 38.99799 | 37.38131 | 31124 ft | 456 kts | 113° |
| 2026-04-25 18:03 | 38.97732 | 37.45773 | 31121 ft | 456 kts | 113° |
| 2026-04-25 18:04 | 38.95642 | 37.53498 | 31115 ft | 456 kts | 113° |
| 2026-04-25 18:04 | 38.93544 | 37.61202 | 31106 ft | 455 kts | 113° |
| 2026-04-25 18:05 | 38.91464 | 37.68829 | 31103 ft | 455 kts | 113° |
| 2026-04-25 18:05 | 38.89371 | 37.76495 | 31100 ft | 455 kts | 113° |
| 2026-04-25 18:06 | 38.87267 | 37.84183 | 31102 ft | 456 kts | 113° |
| 2026-04-25 18:06 | 38.85161 | 37.91844 | 31092 ft | 455 kts | 114° |
| 2026-04-25 18:07 | 38.83039 | 37.99487 | 31093 ft | 454 kts | 116° |
| 2026-04-25 18:07 | 38.80167 | 38.06620 | 31088 ft | 450 kts | 123° |
| 2026-04-25 18:08 | 38.77200 | 38.13715 | 31088 ft | 451 kts | 123° |
| 2026-04-25 18:08 | 38.74236 | 38.20796 | 31081 ft | 451 kts | 123° |
| 2026-04-25 18:09 | 38.71278 | 38.27821 | 31087 ft | 451 kts | 123° |
| 2026-04-25 18:09 | 38.68274 | 38.34942 | 31085 ft | 451 kts | 123° |
| 2026-04-25 18:10 | 38.65304 | 38.41952 | 31086 ft | 451 kts | 123° |
| 2026-04-25 18:10 | 38.62299 | 38.49020 | 31086 ft | 451 kts | 123° |
| 2026-04-25 18:11 | 38.59308 | 38.56079 | 31085 ft | 452 kts | 123° |
| 2026-04-25 18:11 | 38.56306 | 38.63133 | 31087 ft | 452 kts | 123° |
| 2026-04-25 18:12 | 38.53297 | 38.70174 | 31088 ft | 452 kts | 123° |
| 2026-04-25 18:12 | 38.50293 | 38.77194 | 30854 ft | 444 kts | 124° |
| 2026-04-25 18:12 | 38.48850 | 38.80569 | 30600 ft | 435 kts | 124° |
| 2026-04-25 18:13 | 38.47416 | 38.83931 | 30353 ft | 426 kts | 124° |
| 2026-04-25 18:13 | 38.45997 | 38.87248 | 30096 ft | 420 kts | 124° |
| 2026-04-25 18:13 | 38.44600 | 38.90495 | 29853 ft | 417 kts | 124° |
| 2026-04-25 18:14 | 38.41815 | 38.96943 | 29351 ft | 413 kts | 124° |
| 2026-04-25 18:14 | 38.40431 | 39.00148 | 29099 ft | 412 kts | 124° |
| 2026-04-25 18:14 | 38.39046 | 39.03351 | 28849 ft | 411 kts | 124° |
| 2026-04-25 18:14 | 38.37670 | 39.06539 | 28601 ft | 410 kts | 123° |
| 2026-04-25 18:15 | 38.36299 | 39.09718 | 28349 ft | 408 kts | 123° |
| 2026-04-25 18:15 | 38.34930 | 39.12885 | 28099 ft | 407 kts | 123° |
| 2026-04-25 18:15 | 38.33560 | 39.16040 | 27856 ft | 406 kts | 124° |
| 2026-04-25 18:15 | 38.32190 | 39.19190 | 27596 ft | 404 kts | 124° |
| 2026-04-25 18:16 | 38.30828 | 39.22317 | 27342 ft | 403 kts | 123° |
| 2026-04-25 18:16 | 38.29468 | 39.25440 | 27089 ft | 402 kts | 123° |
| 2026-04-25 18:16 | 38.26781 | 39.31610 | 26600 ft | 399 kts | 123° |
| 2026-04-25 18:17 | 38.25434 | 39.34702 | 26349 ft | 399 kts | 123° |
| 2026-04-25 18:17 | 38.24093 | 39.37778 | 26095 ft | 397 kts | 123° |
| 2026-04-25 18:17 | 38.22755 | 39.40846 | 25844 ft | 396 kts | 123° |
| 2026-04-25 18:17 | 38.21421 | 39.43903 | 25593 ft | 395 kts | 123° |
| 2026-04-25 18:18 | 38.20086 | 39.46959 | 25341 ft | 393 kts | 123° |
| 2026-04-25 18:18 | 38.18778 | 39.49947 | 25093 ft | 392 kts | 123° |
| 2026-04-25 18:18 | 38.17456 | 39.52959 | 24836 ft | 390 kts | 123° |
| 2026-04-25 18:18 | 38.16129 | 39.55978 | 24582 ft | 389 kts | 123° |
| 2026-04-25 18:19 | 38.14810 | 39.58978 | 24341 ft | 388 kts | 123° |
| 2026-04-25 18:19 | 38.13497 | 39.61961 | 24045 ft | 386 kts | 123° |
| 2026-04-25 18:19 | 38.12187 | 39.64938 | 23619 ft | 385 kts | 122° |
| 2026-04-25 18:19 | 38.10886 | 39.67902 | 23122 ft | 384 kts | 122° |
| 2026-04-25 18:20 | 38.09591 | 39.70849 | 22613 ft | 380 kts | 122° |
| 2026-04-25 18:20 | 38.08304 | 39.73770 | 22040 ft | 375 kts | 122° |
| 2026-04-25 18:20 | 38.07040 | 39.76634 | 21465 ft | 371 kts | 122° |
| 2026-04-25 18:20 | 38.05785 | 39.79474 | 20881 ft | 366 kts | 122° |
| 2026-04-25 18:21 | 38.04558 | 39.82252 | 20261 ft | 363 kts | 122° |
| 2026-04-25 18:21 | 38.03328 | 39.85032 | 19634 ft | 358 kts | 122° |
| 2026-04-25 18:21 | 38.02110 | 39.87772 | 19013 ft | 355 kts | 121° |
| 2026-04-25 18:21 | 38.00894 | 39.90485 | 18385 ft | 352 kts | 122° |
| 2026-04-25 18:22 | 37.99703 | 39.93151 | 17749 ft | 345 kts | 122° |
| 2026-04-25 18:22 | 37.99304 | 39.94048 | 17532 ft | 344 kts | 121° |
| 2026-04-25 18:22 | 37.97381 | 39.98403 | 16485 ft | 337 kts | 122° |
| 2026-04-25 18:22 | 37.96232 | 40.00975 | 15860 ft | 333 kts | 122° |
| 2026-04-25 18:23 | 37.95095 | 40.03524 | 15233 ft | 330 kts | 121° |
| 2026-04-25 18:23 | 37.93976 | 40.06045 | 14651 ft | 327 kts | 121° |
| 2026-04-25 18:23 | 37.92867 | 40.08539 | 14340 ft | 325 kts | 121° |
| 2026-04-25 18:23 | 37.91753 | 40.11038 | 14039 ft | 323 kts | 121° |
| 2026-04-25 18:24 | 37.90645 | 40.13516 | 13739 ft | 321 kts | 122° |
| 2026-04-25 18:24 | 37.89547 | 40.15967 | 13430 ft | 320 kts | 122° |
| 2026-04-25 18:24 | 37.88455 | 40.18400 | 13137 ft | 318 kts | 122° |
| 2026-04-25 18:24 | 37.87422 | 40.20867 | 12836 ft | 316 kts | 115° |
| 2026-04-25 18:25 | 37.86761 | 40.23448 | 12568 ft | 308 kts | 108° |
| 2026-04-25 18:25 | 37.86182 | 40.26031 | 12306 ft | 294 kts | 108° |
| 2026-04-25 18:25 | 37.85641 | 40.28424 | 12077 ft | 281 kts | 108° |
| 2026-04-25 18:25 | 37.85104 | 40.30786 | 11854 ft | 276 kts | 108° |
| 2026-04-25 18:26 | 37.84576 | 40.33105 | 11625 ft | 272 kts | 108° |
| 2026-04-25 18:26 | 37.84052 | 40.35390 | 11400 ft | 270 kts | 108° |
| 2026-04-25 18:26 | 37.83526 | 40.37669 | 11175 ft | 269 kts | 108° |
| 2026-04-25 18:26 | 37.83004 | 40.39934 | 10948 ft | 267 kts | 108° |
| 2026-04-25 18:27 | 37.82486 | 40.42189 | 10723 ft | 266 kts | 108° |
| 2026-04-25 18:27 | 37.81970 | 40.44433 | 10498 ft | 265 kts | 107° |
| 2026-04-25 18:27 | 37.81457 | 40.46660 | 10272 ft | 262 kts | 108° |
| 2026-04-25 18:27 | 37.80955 | 40.48836 | 10082 ft | 253 kts | 108° |
| 2026-04-25 18:28 | 37.80469 | 40.50941 | 9845 ft | 246 kts | 107° |
| 2026-04-25 18:28 | 37.80003 | 40.52958 | 9651 ft | 232 kts | 107° |
| 2026-04-25 18:28 | 37.79565 | 40.54864 | 9423 ft | 218 kts | 107° |
| 2026-04-25 18:29 | 37.78763 | 40.58339 | 8963 ft | 196 kts | 107° |
| 2026-04-25 18:29 | 37.78388 | 40.59955 | 8779 ft | 188 kts | 107° |
| 2026-04-25 18:30 | 37.77459 | 40.63965 | 8342 ft | 164 kts | 107° |
| 2026-04-25 18:30 | 37.77039 | 40.65773 | 8105 ft | 160 kts | 107° |
| 2026-04-25 18:30 | 37.76727 | 40.67120 | 7931 ft | 159 kts | 107° |
| 2026-04-25 18:30 | 37.76416 | 40.68459 | 7756 ft | 158 kts | 107° |
| 2026-04-25 18:31 | 37.76107 | 40.69790 | 7582 ft | 157 kts | 107° |
| 2026-04-25 18:31 | 37.75798 | 40.71117 | 7400 ft | 157 kts | 107° |
| 2026-04-25 18:31 | 37.75490 | 40.72442 | 7228 ft | 156 kts | 107° |
| 2026-04-25 18:31 | 37.75181 | 40.73761 | 7048 ft | 156 kts | 107° |
| 2026-04-25 18:32 | 37.74874 | 40.75076 | 6876 ft | 156 kts | 107° |
| 2026-04-25 18:32 | 37.74573 | 40.76365 | 6703 ft | 155 kts | 107° |
| 2026-04-25 18:32 | 37.74270 | 40.77669 | 6528 ft | 154 kts | 107° |
| 2026-04-25 18:32 | 37.73966 | 40.78968 | 6349 ft | 153 kts | 107° |
| 2026-04-25 18:33 | 37.73666 | 40.80251 | 6176 ft | 152 kts | 107° |
| 2026-04-25 18:33 | 37.73365 | 40.81535 | 5998 ft | 152 kts | 107° |
| 2026-04-25 18:33 | 37.73066 | 40.82817 | 5851 ft | 151 kts | 107° |
| 2026-04-25 18:33 | 37.72770 | 40.84093 | 5698 ft | 151 kts | 107° |
| 2026-04-25 18:34 | 37.72472 | 40.85364 | 5550 ft | 151 kts | 107° |
| 2026-04-25 18:34 | 37.72173 | 40.86637 | 5390 ft | 151 kts | 106° |
| 2026-04-25 18:34 | 37.71878 | 40.87892 | 5249 ft | 151 kts | 106° |
| 2026-04-25 18:34 | 37.71582 | 40.89158 | 5099 ft | 150 kts | 106° |
| 2026-04-25 18:35 | 37.71287 | 40.90425 | 4967 ft | 150 kts | 105° |
| 2026-04-25 18:35 | 37.70992 | 40.91689 | 4868 ft | 150 kts | 105° |
| 2026-04-25 18:35 | 37.70696 | 40.92956 | 4769 ft | 150 kts | 106° |
| 2026-04-25 18:35 | 37.70398 | 40.94221 | 4667 ft | 150 kts | 105° |
| 2026-04-25 18:36 | 37.70248 | 40.95513 | 4566 ft | 149 kts | 88° |
| 2026-04-25 18:36 | 37.70425 | 40.96800 | 4466 ft | 149 kts | 71° |
| 2026-04-25 18:36 | 37.70905 | 40.97956 | 4358 ft | 149 kts | 53° |
| 2026-04-25 18:36 | 37.71733 | 40.98706 | 4262 ft | 149 kts | 25° |
| 2026-04-25 18:37 | 37.72644 | 40.99328 | 4170 ft | 148 kts | 28° |
| 2026-04-25 18:37 | 37.73557 | 40.99927 | 4104 ft | 148 kts | 27° |
| 2026-04-25 18:37 | 37.74477 | 41.00504 | 4040 ft | 148 kts | 26° |
| 2026-04-25 18:37 | 37.75388 | 41.01063 | 4019 ft | 147 kts | 26° |
| 2026-04-25 18:38 | 37.76309 | 41.01623 | 4021 ft | 146 kts | 26° |
| 2026-04-25 18:38 | 37.77235 | 41.02184 | 4016 ft | 148 kts | 26° |
| 2026-04-25 18:38 | 37.78172 | 41.02750 | 4012 ft | 150 kts | 26° |
| 2026-04-25 18:38 | 37.79115 | 41.03320 | 4008 ft | 151 kts | 26° |
| 2026-04-25 18:39 | 37.80060 | 41.03891 | 4006 ft | 152 kts | 26° |
| 2026-04-25 18:39 | 37.81070 | 41.04502 | 4003 ft | 167 kts | 26° |
| 2026-04-25 18:39 | 37.82119 | 41.05134 | 3854 ft | 167 kts | 26° |
| 2026-04-25 18:39 | 37.83156 | 41.05761 | 3650 ft | 158 kts | 25° |
| 2026-04-25 18:40 | 37.84118 | 41.06334 | 3412 ft | 149 kts | 26° |
| 2026-04-25 18:40 | 37.85041 | 41.06885 | 3245 ft | 146 kts | 26° |
| 2026-04-25 18:40 | 37.85948 | 41.07443 | 3066 ft | 144 kts | 26° |
| 2026-04-25 18:40 | 37.86861 | 41.07970 | 2877 ft | 144 kts | 26° |
| 2026-04-25 18:41 | 37.87751 | 41.08525 | 2694 ft | 144 kts | 26° |
| 2026-04-25 18:41 | 37.88651 | 41.09067 | 2498 ft | 143 kts | 24° |
| 2026-04-25 18:41 | 37.89549 | 41.09611 | 2310 ft | 143 kts | 27° |
| 2026-04-25 18:41 | 37.90440 | 41.10172 | 2065 ft | 143 kts | 26° |
| 2026-04-25 18:42 | 37.91329 | 41.10707 | 1876 ft | 142 kts | 26° |
| 2026-04-25 18:42 | 37.91626 | 41.10895 | 1850 ft | 141 kts | 25° |
| 2026-04-25 18:42 | 37.92794 | 41.11595 | 1826 ft | 80 kts | 26° |
| 2026-04-25 18:42 | 37.93250 | 41.11869 | 1832 ft | 66 kts | 25° |
| 2026-04-25 18:43 | 37.93635 | 41.12103 | 1837 ft | 57 kts | 25° |
| 2026-04-25 18:43 | 37.93962 | 41.12300 | 1838 ft | 36 kts | 25° |
| 2026-04-25 18:43 | 37.94059 | 41.12357 | 1839 ft | 4 kts | 25° |
| 2026-04-25 18:43 | 37.94086 | 41.12369 | 1840 ft | 5 kts | 7° |
| 2026-04-25 18:44 | 37.94166 | 41.12348 | 1840 ft | 20 kts | 342° |
| 2026-04-25 18:44 | 37.94334 | 41.12283 | 1839 ft | 23 kts | 343° |
| 2026-04-25 18:44 | 37.94464 | 41.12231 | 1839 ft | 12 kts | 341° |
| 2026-04-25 18:44 | 37.94512 | 41.12185 | 1839 ft | 9 kts | 269° |
| 2026-04-25 18:45 | 37.94516 | 41.12112 | 1839 ft | 9 kts | 324° |
| 2026-04-25 18:45 | 37.94556 | 41.12095 | 1839 ft | 0 kts | 342° |